createdAt,value
2022-10-13T00:00:09.833Z,13.32
2022-10-13T00:02:36.445Z,14.00
2022-10-13T00:05:03.390Z,13.63
2022-10-13T00:07:30.065Z,16.13
2022-10-13T00:09:56.706Z,17.40
2022-10-13T00:12:23.411Z,18.50
2022-10-13T00:14:50.085Z,13.85
2022-10-13T00:17:16.717Z,12.43
2022-10-13T00:19:43.419Z,16.83
2022-10-13T00:22:10.151Z,12.95
2022-10-13T00:24:36.833Z,14.50
2022-10-13T00:27:03.548Z,14.73
2022-10-13T00:29:30.215Z,12.10
2022-10-13T00:31:56.903Z,13.90
2022-10-13T00:34:23.599Z,12.65
2022-10-13T00:36:50.255Z,17.08
2022-10-13T00:39:16.900Z,14.75
2022-10-13T00:41:44.988Z,12.80
2022-10-13T00:44:50.513Z,14.95
2022-10-13T00:47:17.533Z,14.85
2022-10-13T00:49:44.510Z,18.17
2022-10-13T00:52:11.644Z,15.32
2022-10-13T00:54:38.413Z,13.68
2022-10-13T00:57:06.119Z,9.82
2022-10-13T00:59:32.877Z,14.05
2022-10-13T01:02:00.056Z,15.32
2022-10-13T01:04:31.939Z,15.65
2022-10-13T01:06:59.000Z,12.40
2022-10-13T01:09:25.698Z,12.38
2022-10-13T01:12:11.029Z,13.10
2022-10-13T01:14:44.963Z,11.50
2022-10-13T01:17:35.987Z,15.00
2022-10-13T01:20:08.671Z,12.60
2022-10-13T01:22:47.558Z,16.52
2022-10-13T01:28:14.874Z,14.23
2022-10-13T01:30:50.311Z,16.45
2022-10-13T01:33:20.999Z,10.43
2022-10-13T01:36:10.506Z,10.23
2022-10-13T01:38:54.730Z,12.65
2022-10-13T01:41:40.114Z,12.38
2022-10-13T01:44:17.055Z,14.45
2022-10-13T01:46:45.089Z,12.02
2022-10-13T01:49:15.392Z,14.32
2022-10-13T01:51:44.083Z,13.52
2022-10-13T01:54:11.137Z,13.07
2022-10-13T01:56:37.844Z,15.95
2022-10-13T01:59:13.622Z,13.05
2022-10-13T02:01:59.496Z,16.45
2022-10-13T02:04:58.895Z,14.35
2022-10-13T02:07:32.264Z,11.65
2022-10-13T02:10:08.892Z,14.32
2022-10-13T02:12:54.116Z,13.60
2022-10-13T02:17:52.004Z,12.63
2022-10-13T02:20:20.559Z,13.55
2022-10-13T02:22:55.688Z,17.02
2022-10-13T02:25:22.780Z,13.95
2022-10-13T02:27:49.795Z,15.15
2022-10-13T02:30:23.022Z,16.13
2022-10-13T02:32:49.703Z,13.85
2022-10-13T02:35:16.521Z,12.18
2022-10-13T02:37:43.176Z,13.23
2022-10-13T02:40:10.763Z,12.93
2022-10-13T02:42:37.424Z,13.40
2022-10-13T02:45:04.949Z,14.27
2022-10-13T02:47:31.808Z,17.35
2022-10-13T02:49:58.449Z,13.02
2022-10-13T02:52:25.107Z,14.30
2022-10-13T02:54:51.882Z,12.18
2022-10-13T02:57:19.167Z,13.38
2022-10-13T02:59:45.868Z,11.82
2022-10-13T03:02:12.586Z,14.65
2022-10-13T03:04:39.264Z,11.13
2022-10-13T03:07:05.923Z,11.73
2022-10-13T03:09:32.845Z,17.83
2022-10-13T03:11:59.483Z,12.43
2022-10-13T03:14:26.215Z,12.60
2022-10-13T03:16:52.913Z,13.73
2022-10-13T03:19:19.604Z,15.75
2022-10-13T03:21:46.220Z,13.63
2022-10-13T03:24:12.892Z,14.60
2022-10-13T03:26:39.523Z,17.30
2022-10-13T03:29:06.158Z,15.13
2022-10-13T03:31:33.115Z,16.98
2022-10-13T03:33:59.718Z,16.67
2022-10-13T03:36:26.333Z,13.60
2022-10-13T03:38:53.016Z,15.50
2022-10-13T03:41:19.814Z,15.90
2022-10-13T03:43:47.974Z,16.25
2022-10-13T03:46:17.343Z,15.02
2022-10-13T03:48:44.026Z,13.77
2022-10-13T03:51:13.845Z,16.05
2022-10-13T03:53:40.509Z,17.25
2022-10-13T03:56:07.959Z,15.38
2022-10-13T03:58:35.070Z,20.52
2022-10-13T04:01:06.050Z,16.00
2022-10-13T04:03:33.923Z,14.52
2022-10-13T04:06:01.995Z,18.95
2022-10-13T04:08:30.382Z,16.45
2022-10-13T04:11:06.867Z,19.00
2022-10-13T04:13:34.632Z,14.93
2022-10-13T04:16:06.490Z,17.13
2022-10-13T04:18:33.827Z,14.70
2022-10-13T04:21:00.957Z,16.05
2022-10-13T04:23:27.720Z,15.13
2022-10-13T04:25:54.413Z,16.65
2022-10-13T04:28:21.180Z,14.23
2022-10-13T04:30:49.592Z,18.10
2022-10-13T04:33:16.833Z,17.65
2022-10-13T04:35:43.512Z,21.75
2022-10-13T04:38:10.207Z,16.52
2022-10-13T04:40:36.876Z,25.73
2022-10-13T04:43:03.648Z,22.30
2022-10-13T04:45:30.511Z,26.13
2022-10-13T04:47:57.237Z,29.60
2022-10-13T04:50:23.966Z,29.50
2022-10-13T04:52:50.689Z,26.88
2022-10-13T04:55:17.454Z,29.63
2022-10-13T04:57:44.202Z,31.80
2022-10-13T05:00:11.629Z,31.55
2022-10-13T05:02:38.607Z,35.50
2022-10-13T05:05:05.894Z,33.72
2022-10-13T05:07:32.570Z,38.15
2022-10-13T05:09:59.276Z,38.67
2022-10-13T05:12:25.948Z,35.60
2022-10-13T05:14:52.535Z,45.38
2022-10-13T05:17:19.218Z,36.78
2022-10-13T05:19:45.898Z,39.92
2022-10-13T05:22:12.569Z,35.90
2022-10-13T05:24:39.774Z,36.97
2022-10-13T05:27:09.649Z,39.55
2022-10-13T05:29:37.383Z,36.28
2022-10-13T05:32:04.369Z,40.60
2022-10-13T05:34:31.258Z,30.23
2022-10-13T05:36:58.159Z,42.08
2022-10-13T05:39:24.889Z,40.10
2022-10-13T05:41:51.669Z,37.22
2022-10-13T05:44:18.393Z,39.53
2022-10-13T05:46:45.023Z,42.33
2022-10-13T05:49:11.872Z,40.08
2022-10-13T05:51:42.745Z,39.13
2022-10-13T05:54:20.825Z,43.20
2022-10-13T05:56:52.882Z,46.72
2022-10-13T05:59:26.755Z,41.38
2022-10-13T06:01:54.497Z,40.88
2022-10-13T06:04:34.360Z,45.42
2022-10-13T06:07:00.994Z,34.33
2022-10-13T06:09:37.995Z,40.00
2022-10-13T06:12:05.964Z,37.33
2022-10-13T06:14:35.858Z,42.00
2022-10-13T06:17:02.738Z,46.47
2022-10-13T06:19:29.351Z,42.03
2022-10-13T06:21:58.857Z,35.75
2022-10-13T06:24:27.923Z,34.40
2022-10-13T06:26:54.548Z,44.55
2022-10-13T06:29:21.280Z,37.03
2022-10-13T06:31:50.214Z,36.25
2022-10-13T06:34:17.007Z,37.08
2022-10-13T06:36:43.643Z,34.90
2022-10-13T06:39:10.372Z,42.28
2022-10-13T06:41:37.064Z,40.58
2022-10-13T06:44:04.139Z,48.55
2022-10-13T06:46:30.950Z,40.28
2022-10-13T06:48:57.586Z,44.10
2022-10-13T06:51:24.362Z,41.35
2022-10-13T06:53:51.154Z,44.30
2022-10-13T06:56:17.853Z,34.45
2022-10-13T06:58:44.488Z,40.95
2022-10-13T07:01:13.445Z,39.97
2022-10-13T07:03:40.164Z,38.50
2022-10-13T07:06:07.933Z,42.38
2022-10-13T07:08:35.135Z,36.40
2022-10-13T07:11:16.293Z,41.15
2022-10-13T07:13:46.521Z,41.92
2022-10-13T07:16:14.710Z,34.35
2022-10-13T07:18:41.666Z,42.17
2022-10-13T07:21:08.307Z,42.53
2022-10-13T07:23:34.975Z,40.55
2022-10-13T07:26:01.852Z,40.55
2022-10-13T07:28:29.243Z,34.95
2022-10-13T07:30:56.085Z,39.50
2022-10-13T07:33:22.822Z,33.97
2022-10-13T07:35:49.589Z,32.92
2022-10-13T07:38:17.493Z,34.17
2022-10-13T07:40:44.270Z,36.00
2022-10-13T07:43:10.923Z,37.72
2022-10-13T07:45:37.558Z,35.92
2022-10-13T07:48:04.446Z,43.45
2022-10-13T07:50:31.189Z,40.80
2022-10-13T07:52:58.124Z,39.25
2022-10-13T07:55:24.783Z,40.42
2022-10-13T07:57:51.483Z,42.13
2022-10-13T08:00:18.509Z,37.65
2022-10-13T08:02:45.195Z,40.83
2022-10-13T08:05:11.832Z,40.63
2022-10-13T08:07:39.256Z,41.65
2022-10-13T08:10:06.683Z,43.70
2022-10-13T08:12:35.571Z,36.33
2022-10-13T08:15:06.035Z,43.78
2022-10-13T08:17:33.602Z,33.30
2022-10-13T08:20:00.282Z,29.13
2022-10-13T08:22:28.350Z,33.85
2022-10-13T08:24:56.100Z,32.33
2022-10-13T08:27:26.627Z,32.60
2022-10-13T08:30:04.929Z,32.15
2022-10-13T08:32:31.761Z,32.05
2022-10-13T08:34:58.441Z,32.38
2022-10-13T08:37:25.184Z,29.50
2022-10-13T08:39:55.976Z,32.38
2022-10-13T08:42:23.072Z,33.72
2022-10-13T08:45:28.923Z,27.08
2022-10-13T08:48:03.229Z,29.77
2022-10-13T08:50:39.017Z,24.30
2022-10-13T08:53:30.746Z,28.02
2022-10-13T08:56:06.391Z,28.60
2022-10-13T08:58:36.112Z,29.70
2022-10-13T09:01:08.993Z,30.50
2022-10-13T09:04:09.211Z,23.27
2022-10-13T09:06:50.954Z,23.73
2022-10-13T09:09:18.346Z,25.15
2022-10-13T09:11:47.960Z,31.45
2022-10-13T09:14:30.048Z,31.85
2022-10-13T09:17:12.544Z,25.10
2022-10-13T09:19:40.860Z,26.88
2022-10-13T09:22:24.079Z,28.20
2022-10-13T09:25:09.264Z,26.02
2022-10-13T09:27:53.815Z,29.60
2022-10-13T09:30:29.429Z,27.60
2022-10-13T09:33:04.983Z,23.85
2022-10-13T09:35:34.348Z,26.08
2022-10-13T09:38:04.701Z,24.90
2022-10-13T09:40:32.384Z,26.48
2022-10-13T09:43:00.943Z,26.27
2022-10-13T09:45:30.395Z,22.25
2022-10-13T09:48:02.847Z,27.85
2022-10-13T09:53:29.954Z,23.63
2022-10-13T09:56:21.607Z,24.00
2022-10-13T09:58:51.225Z,23.95
2022-10-13T10:01:34.548Z,24.52
2022-10-13T10:04:06.784Z,32.20
2022-10-13T10:06:34.800Z,28.70
2022-10-13T10:09:33.279Z,29.27
2022-10-13T10:12:02.915Z,24.30
2022-10-13T10:14:36.704Z,27.20
2022-10-13T10:17:26.063Z,26.33
2022-10-13T10:19:57.413Z,26.17
2022-10-13T10:22:37.531Z,27.55
2022-10-13T10:25:37.577Z,24.90
2022-10-13T10:28:26.016Z,26.02
2022-10-13T10:31:15.903Z,26.20
2022-10-13T10:33:57.032Z,24.85
2022-10-13T10:36:34.427Z,30.75
2022-10-13T10:39:12.925Z,27.58
2022-10-13T10:42:00.873Z,28.05
2022-10-13T10:44:38.414Z,25.90
2022-10-13T10:47:11.183Z,25.48
2022-10-13T10:49:39.460Z,32.50
2022-10-13T10:52:10.495Z,27.13
2022-10-13T10:54:50.233Z,26.02
2022-10-13T10:57:31.487Z,27.52
2022-10-13T11:00:06.091Z,28.83
2022-10-13T11:03:07.807Z,23.13
2022-10-13T11:06:01.160Z,24.38
2022-10-13T11:08:48.022Z,25.38
2022-10-13T11:11:24.784Z,24.83
2022-10-13T11:13:57.299Z,22.40
2022-10-13T11:16:41.799Z,26.70
2022-10-13T11:19:08.703Z,22.50
2022-10-13T11:21:55.261Z,21.92
2022-10-13T11:24:34.283Z,22.52
2022-10-13T11:27:15.790Z,25.10
2022-10-13T11:29:57.796Z,22.98
2022-10-13T11:32:36.076Z,19.35
2022-10-13T11:35:05.843Z,21.08
2022-10-13T11:37:41.781Z,21.70
2022-10-13T11:40:27.225Z,24.48
2022-10-13T11:43:15.047Z,19.98
2022-10-13T11:45:58.706Z,21.90
2022-10-13T11:48:37.179Z,20.60
2022-10-13T11:51:23.742Z,24.13
2022-10-13T11:54:08.979Z,23.85
2022-10-13T11:56:48.472Z,20.88
2022-10-13T11:59:21.856Z,20.15
2022-10-13T12:01:53.164Z,19.88
2022-10-13T12:04:22.091Z,21.80
2022-10-13T12:06:59.336Z,19.98
2022-10-13T12:09:26.701Z,16.02
2022-10-13T12:12:15.005Z,19.67
2022-10-13T12:14:48.428Z,18.38
2022-10-13T12:17:23.966Z,18.17
2022-10-13T12:19:53.802Z,18.88
2022-10-13T12:22:21.246Z,19.70
2022-10-13T12:25:06.576Z,16.77
2022-10-13T12:27:48.515Z,17.42
2022-10-13T12:30:24.315Z,15.82
2022-10-13T12:32:53.249Z,19.60
2022-10-13T12:35:23.833Z,19.58
2022-10-13T12:37:51.845Z,19.92
2022-10-13T12:40:19.615Z,17.55
2022-10-13T12:42:48.588Z,17.10
2022-10-13T12:45:20.367Z,14.68
2022-10-13T12:47:47.453Z,17.42
2022-10-13T12:50:29.128Z,16.00
2022-10-13T12:53:10.970Z,15.95
2022-10-13T12:55:49.112Z,13.70
2022-10-13T12:58:33.780Z,17.58
2022-10-13T13:01:31.968Z,15.68
2022-10-13T13:04:28.003Z,15.25
2022-10-13T13:07:03.057Z,16.40
2022-10-13T13:09:34.814Z,19.67
2022-10-13T13:12:10.303Z,16.10
2022-10-13T13:14:40.123Z,14.30
2022-10-13T13:17:13.322Z,17.90
2022-10-13T13:19:42.467Z,17.25
2022-10-13T13:22:10.106Z,17.17
2022-10-13T13:24:40.264Z,15.55
2022-10-13T13:27:16.667Z,18.55
2022-10-13T13:29:43.806Z,15.75
2022-10-13T13:32:15.356Z,16.75
2022-10-13T13:34:42.541Z,18.45
2022-10-13T13:37:32.409Z,15.60
2022-10-13T13:39:59.350Z,15.18
2022-10-13T13:42:28.841Z,17.58
2022-10-13T13:44:56.121Z,15.23
2022-10-13T13:47:25.311Z,16.75
2022-10-13T13:49:53.821Z,19.02
2022-10-13T13:52:21.919Z,18.48
2022-10-13T13:54:50.725Z,16.13
2022-10-13T13:57:18.206Z,16.85
2022-10-13T13:59:45.859Z,18.33
2022-10-13T14:02:21.768Z,18.20
2022-10-13T14:04:48.403Z,19.80
2022-10-13T14:07:17.091Z,13.77
2022-10-13T14:09:43.777Z,17.38
2022-10-13T14:12:10.421Z,19.17
2022-10-13T14:14:37.138Z,16.80
2022-10-13T14:17:05.301Z,18.35
2022-10-13T14:19:33.013Z,17.90
2022-10-13T14:22:03.709Z,15.32
2022-10-13T14:24:34.098Z,18.60
2022-10-13T14:27:00.793Z,16.55
2022-10-13T14:29:27.561Z,13.52
2022-10-13T14:31:54.249Z,17.85
2022-10-13T14:34:21.072Z,17.35
2022-10-13T14:36:48.047Z,18.13
2022-10-13T14:39:14.709Z,15.15
2022-10-13T14:41:41.417Z,19.33
2022-10-13T14:44:11.881Z,19.58
2022-10-13T14:46:38.604Z,18.30
2022-10-13T14:49:05.329Z,16.98
2022-10-13T14:51:32.302Z,14.30
2022-10-13T14:54:01.630Z,18.50
2022-10-13T14:56:30.190Z,15.00
2022-10-13T14:58:59.269Z,16.80
2022-10-13T15:01:26.294Z,17.30
2022-10-13T15:03:55.454Z,18.90
2022-10-13T15:06:24.597Z,19.60
2022-10-13T15:08:51.677Z,14.65
2022-10-13T15:11:20.281Z,16.50
2022-10-13T15:13:47.675Z,16.88
2022-10-13T15:16:28.853Z,16.73
2022-10-13T15:18:56.698Z,16.48
2022-10-13T15:21:24.185Z,19.02
2022-10-13T15:23:51.311Z,18.33
2022-10-13T15:26:19.802Z,20.17
2022-10-13T15:28:49.317Z,19.98
2022-10-13T15:31:17.411Z,18.50
2022-10-13T15:33:45.753Z,22.08
2022-10-13T15:36:12.782Z,20.98
2022-10-13T15:38:39.855Z,19.92
2022-10-13T15:41:07.552Z,16.95
2022-10-13T15:43:34.633Z,18.08
2022-10-13T15:46:07.020Z,20.33
2022-10-13T15:48:34.547Z,22.10
2022-10-13T15:51:01.799Z,22.52
2022-10-13T15:53:30.244Z,23.05
2022-10-13T15:55:56.874Z,25.33
2022-10-13T15:58:23.493Z,20.52
2022-10-13T16:00:50.221Z,24.08
2022-10-13T16:03:18.757Z,22.27
2022-10-13T16:05:46.393Z,18.85
2022-10-13T16:08:14.049Z,21.70
2022-10-13T16:10:42.298Z,22.52
2022-10-13T16:13:12.367Z,23.52
2022-10-13T16:15:39.241Z,20.42
2022-10-13T16:18:06.052Z,21.15
2022-10-13T16:20:35.400Z,21.55
2022-10-13T16:23:02.407Z,24.65
2022-10-13T16:25:33.821Z,24.58
2022-10-13T16:28:00.841Z,24.42
2022-10-13T16:30:28.233Z,23.45
2022-10-13T16:32:55.017Z,31.98
2022-10-13T16:35:22.007Z,30.25
2022-10-13T16:37:48.680Z,25.55
2022-10-13T16:40:15.660Z,26.83
2022-10-13T16:42:43.282Z,23.33
2022-10-13T16:45:10.103Z,24.73
2022-10-13T16:47:36.887Z,25.45
2022-10-13T16:50:09.211Z,26.45
2022-10-13T16:55:07.041Z,25.17
2022-10-13T16:57:34.387Z,23.23
2022-10-13T17:00:01.061Z,25.50
2022-10-13T17:02:27.860Z,25.38
2022-10-13T17:04:54.660Z,24.15
2022-10-13T17:07:21.772Z,26.77
2022-10-13T17:09:48.896Z,25.58
2022-10-13T17:12:24.955Z,25.30
2022-10-13T17:14:51.608Z,27.02
2022-10-13T17:17:18.605Z,28.25
2022-10-13T17:19:45.463Z,25.83
2022-10-13T17:22:12.143Z,26.58
2022-10-13T17:24:39.722Z,28.23
2022-10-13T17:27:06.432Z,29.27
2022-10-13T17:29:33.118Z,32.72
2022-10-13T17:32:01.392Z,30.90
2022-10-13T17:34:28.111Z,25.15
2022-10-13T17:36:54.873Z,28.85
2022-10-13T17:39:21.566Z,30.00
2022-10-13T17:41:48.189Z,32.80
2022-10-13T17:44:20.106Z,27.23
2022-10-13T17:46:48.923Z,30.13
2022-10-13T17:49:16.281Z,32.67
2022-10-13T17:51:43.939Z,31.55
2022-10-13T17:54:16.048Z,28.13
2022-10-13T17:56:45.091Z,27.10
2022-10-13T17:59:12.457Z,33.33
2022-10-13T18:01:39.295Z,33.80
2022-10-13T18:04:11.676Z,29.70
2022-10-13T18:06:40.667Z,33.15
2022-10-13T18:09:09.618Z,32.90
2022-10-13T18:11:37.416Z,30.17
2022-10-13T18:14:04.730Z,33.50
2022-10-13T18:16:31.936Z,29.08
2022-10-13T18:18:58.615Z,34.35
2022-10-13T18:21:29.189Z,34.78
2022-10-13T18:24:00.257Z,39.50
2022-10-13T18:26:29.310Z,36.97
2022-10-13T18:28:57.229Z,34.65
2022-10-13T18:31:29.976Z,38.55
2022-10-13T18:33:59.405Z,31.63
2022-10-13T18:36:37.766Z,34.22
2022-10-13T18:39:07.418Z,34.88
2022-10-13T18:41:35.666Z,33.58
2022-10-13T18:44:03.939Z,37.33
2022-10-13T18:46:31.911Z,34.17
2022-10-13T18:48:58.569Z,30.48
2022-10-13T18:51:25.473Z,36.95
2022-10-13T18:53:52.121Z,32.70
2022-10-13T18:56:22.255Z,33.42
2022-10-13T18:58:49.987Z,32.97
2022-10-13T19:01:20.287Z,35.17
2022-10-13T19:03:47.677Z,32.08
2022-10-13T19:06:16.352Z,35.67
2022-10-13T19:08:46.212Z,37.50
2022-10-13T19:11:15.701Z,36.05
2022-10-13T19:13:42.927Z,34.47
2022-10-13T19:16:11.411Z,36.58
2022-10-13T19:18:38.348Z,32.60
2022-10-13T19:21:05.187Z,31.63
2022-10-13T19:23:32.093Z,36.25
2022-10-13T19:25:59.341Z,34.90
2022-10-13T19:28:26.074Z,31.15
2022-10-13T19:30:52.769Z,32.13
2022-10-13T19:33:19.455Z,35.30
2022-10-13T19:35:49.348Z,40.13
2022-10-13T19:38:16.668Z,35.45
2022-10-13T19:40:46.762Z,33.17
2022-10-13T19:43:13.421Z,33.00
2022-10-13T19:45:48.874Z,33.53
2022-10-13T19:48:16.834Z,33.10
2022-10-13T19:50:43.712Z,35.75
2022-10-13T19:53:11.885Z,31.88
2022-10-13T19:55:43.682Z,27.45
2022-10-13T19:58:10.792Z,32.28
2022-10-13T20:00:37.586Z,37.70
2022-10-13T20:03:05.742Z,33.35
2022-10-13T20:05:32.670Z,32.15
2022-10-13T20:07:59.365Z,33.92
2022-10-13T20:10:26.103Z,37.90
2022-10-13T20:12:52.841Z,37.35
2022-10-13T20:15:19.643Z,35.70
2022-10-13T20:17:46.265Z,37.00
2022-10-13T20:20:12.927Z,37.63
2022-10-13T20:22:39.785Z,38.20
2022-10-13T20:25:07.822Z,35.00
2022-10-13T20:27:34.514Z,34.47
2022-10-13T20:30:01.530Z,37.60
2022-10-13T20:32:28.188Z,38.42
2022-10-13T20:34:54.794Z,35.08
2022-10-13T20:37:21.829Z,35.63
2022-10-13T20:39:48.863Z,31.83
2022-10-13T20:42:15.569Z,34.83
2022-10-13T20:44:42.239Z,36.55
2022-10-13T20:47:08.892Z,36.25
2022-10-13T20:49:35.534Z,31.23
2022-10-13T20:52:02.168Z,36.35
2022-10-13T20:54:28.810Z,35.28
2022-10-13T20:56:56.110Z,35.78
2022-10-13T20:59:22.759Z,35.13
2022-10-13T21:01:49.568Z,39.15
2022-10-13T21:04:16.444Z,32.10
2022-10-13T21:06:43.296Z,35.85
2022-10-13T21:09:10.740Z,37.00
2022-10-13T21:11:38.075Z,34.00
2022-10-13T21:14:07.017Z,37.25
2022-10-13T21:16:34.241Z,34.00
2022-10-13T21:19:01.138Z,36.08
2022-10-13T21:21:29.947Z,36.60
2022-10-13T21:23:58.920Z,38.38
2022-10-13T21:26:28.112Z,34.22
2022-10-13T21:28:55.338Z,35.95
2022-10-13T21:31:23.261Z,36.92
2022-10-13T21:33:50.624Z,37.95
2022-10-13T21:36:23.180Z,37.63
2022-10-13T21:39:02.231Z,41.65
2022-10-13T21:41:29.008Z,36.60
2022-10-13T21:43:56.039Z,37.55
2022-10-13T21:46:28.434Z,45.17
2022-10-13T21:51:25.759Z,41.70
2022-10-13T21:53:55.559Z,44.33
2022-10-13T21:56:25.585Z,40.08
2022-10-13T21:58:52.944Z,40.42
2022-10-13T22:01:20.638Z,43.08
2022-10-13T22:03:54.908Z,39.13
2022-10-13T22:06:21.592Z,40.03
2022-10-13T22:08:50.677Z,42.17
2022-10-13T22:11:17.866Z,42.88
2022-10-13T22:13:45.003Z,42.47
2022-10-13T22:16:13.508Z,43.53
2022-10-13T22:18:40.323Z,45.45
2022-10-13T22:21:10.224Z,41.20
2022-10-13T22:23:36.923Z,43.47
2022-10-13T22:26:03.671Z,43.15
2022-10-13T22:28:36.892Z,38.53
2022-10-13T22:31:07.797Z,40.58
2022-10-13T22:33:36.049Z,41.55
2022-10-13T22:36:29.244Z,43.97
2022-10-13T22:38:58.004Z,39.75
2022-10-13T22:41:24.900Z,41.65
2022-10-13T22:43:53.890Z,42.05
2022-10-13T22:46:23.730Z,47.72
2022-10-13T22:48:50.884Z,45.33
2022-10-13T22:51:20.124Z,40.55
2022-10-13T22:53:47.893Z,40.78
2022-10-13T22:56:20.139Z,36.17
2022-10-13T22:58:51.296Z,43.15
2022-10-13T23:01:18.714Z,41.22
2022-10-13T23:03:54.420Z,42.95
2022-10-13T23:06:25.784Z,40.92
2022-10-13T23:08:52.920Z,41.88
2022-10-13T23:11:19.833Z,44.70
2022-10-13T23:13:46.916Z,38.17
2022-10-13T23:16:19.977Z,41.30
2022-10-13T23:18:47.010Z,41.05
2022-10-13T23:21:16.658Z,36.15
2022-10-13T23:23:43.892Z,40.40
2022-10-13T23:26:13.190Z,47.28
2022-10-13T23:28:40.093Z,44.65
2022-10-13T23:31:12.797Z,42.90
2022-10-13T23:33:39.606Z,39.80
2022-10-13T23:36:07.594Z,47.40
2022-10-13T23:38:34.862Z,47.17
2022-10-13T23:41:09.985Z,47.45
2022-10-13T23:43:36.744Z,46.22
2022-10-13T23:46:04.138Z,43.72
2022-10-13T23:48:31.131Z,39.63
2022-10-13T23:50:57.977Z,44.33
2022-10-13T23:53:25.003Z,43.10
2022-10-13T23:55:51.679Z,40.05
2022-10-13T23:58:18.409Z,42.15
